createdAt,value
2022-12-23T00:00:00.326Z,11.60
2022-12-23T00:00:12.898Z,11.60
2022-12-23T00:00:24.635Z,11.60
2022-12-23T00:00:36.464Z,11.50
2022-12-23T00:00:56.647Z,11.60
2022-12-23T00:01:08.511Z,11.60
2022-12-23T00:01:20.203Z,11.60
2022-12-23T00:01:32.115Z,11.60
2022-12-23T00:01:43.974Z,11.60
2022-12-23T00:01:55.797Z,11.60
2022-12-23T00:02:07.829Z,11.60
2022-12-23T00:02:19.678Z,11.60
2022-12-23T00:02:31.726Z,11.60
2022-12-23T00:02:43.862Z,11.60
2022-12-23T00:02:55.962Z,11.60
2022-12-23T00:03:08.173Z,11.60
2022-12-23T00:03:20.141Z,11.60
2022-12-23T00:03:32.321Z,11.60
2022-12-23T00:03:44.586Z,11.60
2022-12-23T00:03:57.363Z,11.60
2022-12-23T00:04:09.340Z,11.60
2022-12-23T00:04:21.263Z,11.60
2022-12-23T00:04:32.994Z,11.60
2022-12-23T00:04:44.671Z,11.60
2022-12-23T00:04:56.412Z,11.70
2022-12-23T00:05:08.626Z,11.60
2022-12-23T00:05:20.944Z,11.60
2022-12-23T00:05:38.199Z,11.70
2022-12-23T00:05:50.200Z,11.70
2022-12-23T00:06:02.297Z,11.60
2022-12-23T00:06:15.769Z,11.70
2022-12-23T00:06:27.574Z,11.70
2022-12-23T00:06:39.286Z,11.70
2022-12-23T00:06:50.968Z,11.70
2022-12-23T00:07:02.716Z,11.70
2022-12-23T00:07:14.470Z,11.70
2022-12-23T00:07:26.218Z,11.70
2022-12-23T00:07:38.007Z,11.70
2022-12-23T00:07:50.058Z,11.70
2022-12-23T00:08:01.822Z,11.70
2022-12-23T00:08:13.513Z,11.70
2022-12-23T00:08:25.627Z,11.70
2022-12-23T00:08:37.359Z,11.70
2022-12-23T00:08:49.105Z,11.70
2022-12-23T00:09:00.814Z,11.70
2022-12-23T00:09:12.482Z,11.70
2022-12-23T00:09:24.212Z,11.70
2022-12-23T00:09:35.890Z,11.60
2022-12-23T00:09:47.606Z,11.60
2022-12-23T00:09:59.442Z,11.70
2022-12-23T00:10:11.465Z,11.70
2022-12-23T00:10:23.294Z,11.70
2022-12-23T00:10:38.313Z,11.70
2022-12-23T00:10:50.601Z,11.70
2022-12-23T00:11:03.307Z,11.60
2022-12-23T00:11:18.063Z,11.60
2022-12-23T00:11:29.824Z,11.60
2022-12-23T00:12:01.613Z,11.60
2022-12-23T00:12:31.919Z,11.60
2022-12-23T00:13:02.155Z,11.70
2022-12-23T00:13:32.301Z,11.70
2022-12-23T00:14:03.028Z,11.70
2022-12-23T00:14:40.871Z,11.70
2022-12-23T00:15:07.892Z,11.70
2022-12-23T00:15:19.660Z,11.70
2022-12-23T00:15:31.431Z,11.70
2022-12-23T00:15:43.323Z,11.70
2022-12-23T00:16:05.083Z,11.70
2022-12-23T00:16:16.948Z,11.70
2022-12-23T00:16:28.864Z,11.70
2022-12-23T00:16:40.682Z,11.70
2022-12-23T00:16:52.695Z,11.70
2022-12-23T00:17:12.925Z,11.70
2022-12-23T00:17:37.760Z,11.70
2022-12-23T00:17:49.812Z,11.70
2022-12-23T00:18:01.560Z,11.70
2022-12-23T00:18:13.267Z,11.80
2022-12-23T00:18:24.963Z,11.70
2022-12-23T00:18:37.001Z,11.70
2022-12-23T00:18:48.727Z,11.80
2022-12-23T00:19:00.598Z,11.70
2022-12-23T00:19:12.316Z,11.70
2022-12-23T00:19:24.290Z,11.70
2022-12-23T00:19:36.040Z,11.70
2022-12-23T00:19:47.772Z,11.80
2022-12-23T00:19:59.652Z,11.80
2022-12-23T00:20:13.300Z,11.80
2022-12-23T00:20:24.997Z,11.80
2022-12-23T00:20:36.926Z,11.80
2022-12-23T00:20:48.614Z,11.80
2022-12-23T00:21:08.600Z,11.70
2022-12-23T00:21:21.741Z,11.80
2022-12-23T00:21:33.680Z,11.80
2022-12-23T00:21:45.509Z,11.80
2022-12-23T00:21:57.226Z,11.80
2022-12-23T00:22:08.958Z,11.80
2022-12-23T00:22:40.633Z,11.80
2022-12-23T00:23:07.568Z,11.80
2022-12-23T00:23:19.274Z,11.80
2022-12-23T00:23:34.778Z,11.80
2022-12-23T00:23:47.700Z,11.80
2022-12-23T00:23:59.568Z,11.80
2022-12-23T00:24:11.685Z,11.80
2022-12-23T00:24:23.472Z,11.80
2022-12-23T00:24:35.202Z,11.80
2022-12-23T00:24:47.092Z,11.80
2022-12-23T00:24:58.849Z,11.80
2022-12-23T00:25:11.120Z,11.80
2022-12-23T00:25:40.402Z,11.80
2022-12-23T00:25:52.485Z,11.80
2022-12-23T00:26:04.514Z,11.80
2022-12-23T00:26:22.035Z,11.70
2022-12-23T00:26:33.881Z,11.70
2022-12-23T00:26:45.717Z,11.80
2022-12-23T00:26:57.440Z,11.80
2022-12-23T00:27:09.128Z,11.80
2022-12-23T00:27:20.839Z,11.80
2022-12-23T00:27:37.380Z,11.80
2022-12-23T00:28:01.321Z,11.80
2022-12-23T00:28:17.546Z,11.80
2022-12-23T00:28:29.522Z,11.80
2022-12-23T00:28:41.250Z,11.80
2022-12-23T00:28:53.069Z,11.80
2022-12-23T00:29:04.784Z,11.80
2022-12-23T00:29:16.453Z,11.80
2022-12-23T00:29:28.585Z,11.80
2022-12-23T00:29:40.535Z,11.80
2022-12-23T00:29:52.284Z,11.80
2022-12-23T00:30:05.830Z,11.80
2022-12-23T00:30:17.593Z,11.80
2022-12-23T00:30:29.417Z,11.80
2022-12-23T00:30:54.829Z,11.80
2022-12-23T00:31:07.137Z,11.80
2022-12-23T00:31:19.323Z,11.80
2022-12-23T00:31:31.354Z,11.80
2022-12-23T00:31:43.210Z,11.80
2022-12-23T00:31:55.024Z,11.80
2022-12-23T00:32:06.993Z,11.80
2022-12-23T00:32:18.758Z,11.80
2022-12-23T00:32:30.612Z,11.80
2022-12-23T00:32:42.336Z,11.80
2022-12-23T00:32:54.288Z,11.80
2022-12-23T00:33:06.093Z,11.80
2022-12-23T00:33:23.079Z,11.80
2022-12-23T00:33:37.031Z,11.80
2022-12-23T00:33:49.439Z,11.80
2022-12-23T00:34:01.127Z,11.80
2022-12-23T00:34:13.192Z,11.70
2022-12-23T00:34:24.996Z,11.80
2022-12-23T00:34:36.717Z,11.80
2022-12-23T00:34:48.628Z,11.70
2022-12-23T00:35:00.371Z,11.70
2022-12-23T00:35:12.118Z,11.80
2022-12-23T00:35:23.965Z,11.80
2022-12-23T00:35:35.692Z,11.70
2022-12-23T00:35:47.525Z,11.80
2022-12-23T00:35:59.559Z,11.70
2022-12-23T00:36:23.422Z,11.70
2022-12-23T00:36:37.555Z,11.70
2022-12-23T00:36:49.460Z,11.80
2022-12-23T00:37:01.198Z,11.80
2022-12-23T00:37:13.026Z,11.70
2022-12-23T00:37:24.819Z,11.80
2022-12-23T00:37:36.549Z,11.80
2022-12-23T00:37:48.221Z,11.80
2022-12-23T00:38:00.135Z,11.80
2022-12-23T00:38:12.239Z,11.80
2022-12-23T00:38:42.692Z,11.80
2022-12-23T00:39:13.591Z,11.80
2022-12-23T00:39:43.704Z,11.80
2022-12-23T00:40:14.144Z,11.80
2022-12-23T00:40:44.557Z,11.80
2022-12-23T00:41:15.128Z,11.80
2022-12-23T00:41:46.483Z,11.80
2022-12-23T00:42:16.740Z,11.80
2022-12-23T00:42:47.296Z,11.80
2022-12-23T00:42:59.207Z,11.80
2022-12-23T00:43:10.969Z,11.80
2022-12-23T00:43:22.791Z,11.80
2022-12-23T00:43:34.474Z,11.80
2022-12-23T00:43:46.323Z,11.80
2022-12-23T00:43:58.453Z,11.80
2022-12-23T00:44:10.142Z,11.80
2022-12-23T00:44:22.177Z,11.80
2022-12-23T00:44:34.081Z,11.80
2022-12-23T00:44:45.980Z,11.80
2022-12-23T00:45:15.693Z,11.80
2022-12-23T00:45:27.742Z,11.80
2022-12-23T00:45:39.561Z,11.80
2022-12-23T00:45:51.460Z,11.80
2022-12-23T00:46:03.401Z,11.80
2022-12-23T00:46:15.306Z,11.80
2022-12-23T00:46:27.089Z,11.80
2022-12-23T00:46:38.908Z,11.80
2022-12-23T00:46:50.770Z,11.80
2022-12-23T00:47:02.548Z,11.80
2022-12-23T00:47:34.261Z,11.80
2022-12-23T00:48:05.172Z,11.80
2022-12-23T00:48:35.570Z,11.80
2022-12-23T00:49:05.794Z,11.80
2022-12-23T00:49:36.624Z,11.80
2022-12-23T00:49:48.419Z,11.80
2022-12-23T00:50:00.192Z,11.80
2022-12-23T00:50:11.926Z,11.80
2022-12-23T00:50:23.791Z,11.80
2022-12-23T00:50:36.580Z,11.80
2022-12-23T00:50:51.033Z,11.80
2022-12-23T00:51:02.846Z,11.80
2022-12-23T00:51:14.611Z,11.80
2022-12-23T00:51:26.326Z,11.80
2022-12-23T00:51:38.053Z,11.80
2022-12-23T00:51:49.818Z,11.80
2022-12-23T00:52:01.612Z,11.80
2022-12-23T00:52:14.312Z,11.80
2022-12-23T00:52:26.002Z,11.80
2022-12-23T00:52:37.754Z,11.80
2022-12-23T00:52:49.516Z,11.90
2022-12-23T00:53:01.274Z,11.80
2022-12-23T00:53:13.175Z,11.80
2022-12-23T00:53:24.978Z,11.80
2022-12-23T00:53:36.668Z,11.80
2022-12-23T00:53:48.347Z,11.90
2022-12-23T00:54:00.174Z,11.90
2022-12-23T00:54:11.875Z,11.90
2022-12-23T00:54:23.663Z,11.90
2022-12-23T00:54:35.359Z,11.90
2022-12-23T00:54:47.190Z,11.90
2022-12-23T00:54:59.057Z,11.90
2022-12-23T00:55:10.879Z,11.90
2022-12-23T00:55:22.654Z,11.90
2022-12-23T00:55:34.550Z,12.00
2022-12-23T00:55:47.757Z,12.00
2022-12-23T00:55:59.523Z,12.00
2022-12-23T00:56:11.281Z,12.00
2022-12-23T00:56:23.199Z,12.00
2022-12-23T00:56:34.942Z,12.00
2022-12-23T00:56:46.826Z,12.00
2022-12-23T00:56:59.053Z,12.00
2022-12-23T00:57:10.959Z,12.00
2022-12-23T00:57:22.714Z,12.00
2022-12-23T00:57:34.547Z,12.00
2022-12-23T00:57:46.373Z,12.00
2022-12-23T00:57:58.328Z,12.00
2022-12-23T00:58:10.027Z,12.00
2022-12-23T00:58:22.029Z,12.00
2022-12-23T00:58:33.900Z,12.00
2022-12-23T00:58:45.672Z,12.10
2022-12-23T00:58:57.563Z,12.00
2022-12-23T00:59:09.693Z,12.00
2022-12-23T00:59:21.421Z,12.00
2022-12-23T00:59:33.550Z,12.00
2022-12-23T00:59:45.250Z,12.00
2022-12-23T00:59:57.104Z,12.00
2022-12-23T01:00:09.477Z,12.00
2022-12-23T01:00:41.518Z,12.00
2022-12-23T01:01:11.713Z,12.00
2022-12-23T01:01:42.131Z,12.00
2022-12-23T01:02:12.501Z,12.00
2022-12-23T01:02:42.920Z,12.00
2022-12-23T01:03:13.322Z,12.00
2022-12-23T01:03:43.669Z,12.00
2022-12-23T01:04:13.970Z,12.00
2022-12-23T01:04:44.589Z,12.00
2022-12-23T01:05:14.801Z,12.00
2022-12-23T01:05:39.172Z,12.00
2022-12-23T01:05:51.050Z,12.00
2022-12-23T01:06:03.083Z,12.00
2022-12-23T01:06:14.838Z,12.00
2022-12-23T01:06:26.683Z,12.00
2022-12-23T01:06:38.406Z,12.00
2022-12-23T01:06:50.339Z,12.00
2022-12-23T01:07:04.534Z,12.00
2022-12-23T01:07:16.304Z,12.00
2022-12-23T01:07:28.151Z,12.00
2022-12-23T01:07:40.046Z,12.00
2022-12-23T01:07:53.151Z,12.00
2022-12-23T01:08:05.909Z,12.00
2022-12-23T01:08:17.770Z,12.00
2022-12-23T01:08:29.520Z,12.00
2022-12-23T01:08:41.342Z,12.00
2022-12-23T01:08:53.091Z,12.00
2022-12-23T01:09:04.937Z,12.00
2022-12-23T01:09:16.704Z,12.00
2022-12-23T01:09:28.617Z,12.00
2022-12-23T01:09:40.390Z,12.00
2022-12-23T01:09:52.427Z,12.00
2022-12-23T01:10:04.457Z,12.00
2022-12-23T01:10:16.905Z,12.00
2022-12-23T01:10:28.669Z,12.00
2022-12-23T01:10:41.028Z,12.00
2022-12-23T01:10:52.760Z,12.00
2022-12-23T01:11:06.389Z,12.00
2022-12-23T01:11:18.017Z,12.00
2022-12-23T01:11:29.902Z,12.00
2022-12-23T01:11:41.865Z,12.00
2022-12-23T01:11:53.918Z,12.00
2022-12-23T01:12:05.834Z,12.00
2022-12-23T01:12:17.681Z,12.00
2022-12-23T01:12:29.733Z,12.00
2022-12-23T01:12:41.618Z,12.00
2022-12-23T01:12:53.311Z,12.00
2022-12-23T01:13:05.113Z,12.00
2022-12-23T01:13:16.959Z,12.00
2022-12-23T01:13:28.757Z,12.00
2022-12-23T01:13:40.554Z,12.00
2022-12-23T01:13:52.293Z,12.00
2022-12-23T01:14:04.079Z,12.00
2022-12-23T01:14:17.867Z,12.00
2022-12-23T01:14:29.903Z,12.00
2022-12-23T01:14:41.610Z,12.00
2022-12-23T01:14:53.459Z,12.00
2022-12-23T01:15:05.727Z,12.00
2022-12-23T01:15:17.409Z,12.00
2022-12-23T01:15:29.679Z,12.00
2022-12-23T01:15:41.431Z,12.00
2022-12-23T01:15:53.411Z,12.00
2022-12-23T01:16:13.329Z,12.00
2022-12-23T01:16:28.851Z,12.00
2022-12-23T01:16:40.673Z,12.00
2022-12-23T01:16:52.612Z,12.00
2022-12-23T01:17:06.165Z,12.00
2022-12-23T01:17:18.075Z,12.00
2022-12-23T01:17:29.905Z,12.00
2022-12-23T01:17:41.734Z,12.00
2022-12-23T01:17:53.593Z,12.00
2022-12-23T01:18:05.480Z,12.00
2022-12-23T01:18:17.311Z,12.00
2022-12-23T01:18:29.141Z,12.00
2022-12-23T01:18:41.737Z,12.00
2022-12-23T01:18:53.481Z,12.00
2022-12-23T01:19:06.132Z,12.00
2022-12-23T01:19:17.799Z,12.00
2022-12-23T01:19:30.967Z,12.00
2022-12-23T01:19:42.844Z,12.00
2022-12-23T01:19:54.725Z,12.00
2022-12-23T01:20:07.084Z,12.00
2022-12-23T01:20:18.786Z,12.00
2022-12-23T01:20:30.513Z,12.00
2022-12-23T01:20:42.203Z,12.00
2022-12-23T01:20:53.984Z,12.00
2022-12-23T01:21:07.334Z,12.00
2022-12-23T01:21:19.167Z,12.00
2022-12-23T01:21:30.927Z,12.00
2022-12-23T01:21:42.708Z,12.00
2022-12-23T01:21:54.373Z,12.00
2022-12-23T01:22:06.069Z,12.00
2022-12-23T01:22:17.815Z,12.00
2022-12-23T01:22:29.671Z,12.00
2022-12-23T01:22:41.420Z,12.00
2022-12-23T01:22:53.289Z,12.10
2022-12-23T01:23:04.975Z,12.00
2022-12-23T01:23:16.641Z,12.10
2022-12-23T01:23:28.449Z,12.00
2022-12-23T01:23:40.551Z,12.00
2022-12-23T01:23:52.409Z,12.00
2022-12-23T01:24:04.351Z,12.00
2022-12-23T01:24:16.118Z,12.00
2022-12-23T01:24:29.302Z,12.00
2022-12-23T01:24:41.070Z,12.00
2022-12-23T01:24:52.901Z,12.00
2022-12-23T01:25:04.965Z,12.00
2022-12-23T01:25:17.065Z,12.00
2022-12-23T01:25:28.907Z,12.00
2022-12-23T01:25:40.604Z,12.00
2022-12-23T01:26:02.890Z,12.00
2022-12-23T01:26:14.586Z,12.00
2022-12-23T01:26:26.504Z,12.00
2022-12-23T01:26:38.537Z,12.00
2022-12-23T01:26:50.275Z,12.00
2022-12-23T01:27:01.967Z,12.00
2022-12-23T01:27:13.874Z,12.00
2022-12-23T01:27:25.841Z,12.00
2022-12-23T01:27:37.580Z,12.00
2022-12-23T01:27:49.468Z,12.00
2022-12-23T01:28:01.363Z,12.00
2022-12-23T01:28:13.331Z,12.00
2022-12-23T01:28:25.349Z,12.00
2022-12-23T01:28:37.128Z,12.00
2022-12-23T01:28:48.896Z,12.00
2022-12-23T01:29:01.318Z,12.00
2022-12-23T01:29:13.133Z,12.00
2022-12-23T01:29:25.013Z,12.00
2022-12-23T01:29:36.720Z,12.00
2022-12-23T01:29:48.554Z,12.00
2022-12-23T01:30:00.285Z,12.00
2022-12-23T01:30:12.282Z,12.00
2022-12-23T01:30:24.073Z,12.00
2022-12-23T01:30:37.530Z,12.00
2022-12-23T01:30:49.282Z,12.00
2022-12-23T01:31:01.606Z,12.00
2022-12-23T01:31:13.787Z,12.00
2022-12-23T01:31:26.445Z,12.00
2022-12-23T01:31:38.343Z,12.00
2022-12-23T01:31:50.193Z,12.00
2022-12-23T01:32:02.111Z,12.00
2022-12-23T01:32:13.998Z,12.00
2022-12-23T01:32:25.849Z,12.00
2022-12-23T01:32:37.704Z,12.00
2022-12-23T01:32:49.422Z,12.00
2022-12-23T01:33:01.104Z,12.00
2022-12-23T01:33:12.767Z,12.00
2022-12-23T01:33:24.668Z,12.00
2022-12-23T01:33:36.394Z,12.00
2022-12-23T01:33:48.288Z,12.00
2022-12-23T01:34:00.121Z,12.00
2022-12-23T01:34:12.037Z,12.00
2022-12-23T01:34:24.367Z,12.00
2022-12-23T01:34:37.568Z,12.10
2022-12-23T01:34:49.819Z,12.00
2022-12-23T01:35:01.558Z,12.10
2022-12-23T01:35:13.253Z,12.10
2022-12-23T01:35:25.105Z,12.00
2022-12-23T01:35:36.842Z,12.10
2022-12-23T01:35:48.684Z,12.10
2022-12-23T01:36:02.011Z,12.10
2022-12-23T01:36:13.847Z,12.10
2022-12-23T01:36:25.752Z,12.10
2022-12-23T01:36:37.490Z,12.10
2022-12-23T01:36:49.313Z,12.00
2022-12-23T01:37:01.209Z,12.00
2022-12-23T01:37:13.050Z,12.00
2022-12-23T01:37:24.906Z,12.00
2022-12-23T01:37:36.764Z,12.10
2022-12-23T01:37:48.673Z,12.00
2022-12-23T01:38:00.499Z,12.10
2022-12-23T01:38:12.237Z,12.10
2022-12-23T01:38:24.054Z,12.10
2022-12-23T01:38:36.034Z,12.10
2022-12-23T01:38:47.998Z,12.10
2022-12-23T01:38:59.769Z,12.10
2022-12-23T01:39:11.644Z,12.10
2022-12-23T01:39:23.364Z,12.10
2022-12-23T01:39:35.292Z,12.10
2022-12-23T01:39:47.059Z,12.10
2022-12-23T01:39:58.910Z,12.10
2022-12-23T01:40:10.929Z,12.10
2022-12-23T01:40:22.750Z,12.10
2022-12-23T01:40:38.855Z,12.10
2022-12-23T01:40:50.508Z,12.10
2022-12-23T01:41:02.433Z,12.10
2022-12-23T01:41:44.091Z,12.10
2022-12-23T01:42:14.533Z,12.10
2022-12-23T01:42:45.007Z,12.10
2022-12-23T01:42:56.840Z,12.10
2022-12-23T01:43:19.168Z,12.10
2022-12-23T01:44:03.164Z,12.10
2022-12-23T01:44:45.878Z,12.10
2022-12-23T01:45:00.774Z,12.10
2022-12-23T01:45:16.845Z,12.10
2022-12-23T01:45:30.028Z,12.10
2022-12-23T01:45:41.854Z,12.10
2022-12-23T01:45:53.630Z,12.10
2022-12-23T01:46:05.504Z,12.10
2022-12-23T01:46:17.680Z,12.10
2022-12-23T01:46:29.481Z,12.10
2022-12-23T01:46:41.350Z,12.10
2022-12-23T01:46:53.212Z,12.00
2022-12-23T01:47:05.576Z,12.00
2022-12-23T01:47:31.577Z,12.00
2022-12-23T01:47:45.937Z,12.00
2022-12-23T01:48:06.341Z,12.10
2022-12-23T01:48:22.176Z,12.00
2022-12-23T01:48:33.831Z,12.00
2022-12-23T01:48:48.105Z,12.00
2022-12-23T01:48:59.859Z,12.00
2022-12-23T01:49:11.665Z,12.00
2022-12-23T01:49:23.500Z,12.00
2022-12-23T01:49:35.175Z,12.00
2022-12-23T01:49:47.095Z,12.00
2022-12-23T01:50:23.598Z,12.00
2022-12-23T01:50:39.071Z,12.00
2022-12-23T01:50:56.245Z,12.00
2022-12-23T01:51:11.260Z,12.00
2022-12-23T01:51:27.527Z,12.00
2022-12-23T01:51:39.188Z,12.00
2022-12-23T01:51:51.075Z,12.00
2022-12-23T01:52:02.831Z,12.00
2022-12-23T01:52:14.621Z,12.00
2022-12-23T01:52:26.728Z,12.00
2022-12-23T01:53:07.820Z,12.00
2022-12-23T01:53:28.634Z,12.00
2022-12-23T01:53:45.635Z,12.00
2022-12-23T01:54:01.233Z,12.00
2022-12-23T01:54:12.957Z,12.00
2022-12-23T01:54:24.621Z,12.00
2022-12-23T01:54:36.301Z,12.00
2022-12-23T01:54:48.191Z,12.00
2022-12-23T01:54:59.942Z,12.00
2022-12-23T01:55:12.351Z,12.00
2022-12-23T01:55:25.467Z,12.00
2022-12-23T01:56:01.216Z,12.00
2022-12-23T01:56:24.024Z,12.00
2022-12-23T01:56:37.088Z,12.00
2022-12-23T01:56:48.818Z,12.00
2022-12-23T01:57:00.497Z,12.00
2022-12-23T01:57:12.242Z,11.90
2022-12-23T01:57:24.111Z,12.00
2022-12-23T01:57:36.529Z,12.00
2022-12-23T01:57:48.294Z,12.00
2022-12-23T01:58:04.685Z,12.00
2022-12-23T01:58:18.507Z,12.00
2022-12-23T01:58:40.597Z,12.00
2022-12-23T01:59:03.073Z,11.90
2022-12-23T01:59:37.741Z,11.90
2022-12-23T02:00:08.190Z,11.90
2022-12-23T02:00:38.611Z,12.00
2022-12-23T02:01:09.113Z,12.00
2022-12-23T02:01:40.274Z,12.00
2022-12-23T02:02:11.113Z,12.00
2022-12-23T02:02:41.566Z,12.00
2022-12-23T02:03:11.891Z,11.90
2022-12-23T02:03:42.427Z,11.90
2022-12-23T02:03:56.273Z,11.90
2022-12-23T02:04:09.797Z,11.90
2022-12-23T02:04:23.595Z,11.90
2022-12-23T02:04:35.330Z,12.00
2022-12-23T02:04:47.786Z,11.90
2022-12-23T02:04:59.516Z,11.90
2022-12-23T02:05:12.036Z,12.00
2022-12-23T02:05:23.914Z,11.90
2022-12-23T02:05:35.691Z,11.90
2022-12-23T02:05:47.497Z,11.90
2022-12-23T02:06:19.286Z,11.90
2022-12-23T02:06:55.600Z,11.90
2022-12-23T02:07:25.802Z,12.00
2022-12-23T02:07:56.250Z,11.90
2022-12-23T02:08:26.845Z,11.90
2022-12-23T02:08:57.949Z,11.90
2022-12-23T02:09:17.597Z,11.90
2022-12-23T02:09:34.138Z,12.00
2022-12-23T02:09:45.823Z,11.90
2022-12-23T02:09:57.497Z,12.00
2022-12-23T02:10:10.470Z,12.00
2022-12-23T02:10:22.196Z,11.90
2022-12-23T02:10:59.499Z,11.90
2022-12-23T02:11:17.024Z,11.90
2022-12-23T02:11:37.917Z,11.90
2022-12-23T02:12:14.022Z,11.90
2022-12-23T02:12:42.955Z,11.90
2022-12-23T02:13:02.094Z,12.00
2022-12-23T02:13:19.726Z,12.00
2022-12-23T02:13:38.767Z,12.00
2022-12-23T02:14:40.661Z,12.00
2022-12-23T02:15:30.262Z,12.00
2022-12-23T02:16:05.157Z,12.00
2022-12-23T02:16:16.909Z,12.00
2022-12-23T02:16:29.095Z,12.00
2022-12-23T02:16:44.935Z,12.00
2022-12-23T02:17:23.818Z,12.00
2022-12-23T02:17:50.397Z,12.00
2022-12-23T02:18:29.618Z,12.00
2022-12-23T02:19:17.926Z,12.00
2022-12-23T02:20:00.261Z,12.00
2022-12-23T02:20:17.590Z,12.10
2022-12-23T02:20:42.133Z,12.10
2022-12-23T02:21:27.361Z,12.10
2022-12-23T02:21:39.261Z,12.10
2022-12-23T02:22:20.369Z,12.10
2022-12-23T02:22:55.658Z,12.10
2022-12-23T02:23:25.829Z,12.10
2022-12-23T02:23:56.529Z,12.00
2022-12-23T02:24:26.837Z,12.00
2022-12-23T02:25:15.655Z,12.00
2022-12-23T02:25:46.086Z,12.00
2022-12-23T02:26:22.181Z,12.00
2022-12-23T02:26:52.131Z,12.00
2022-12-23T02:27:17.096Z,12.00
2022-12-23T02:27:30.839Z,12.00
2022-12-23T02:27:53.072Z,12.00
2022-12-23T02:28:37.039Z,12.10
2022-12-23T02:29:19.586Z,12.10
2022-12-23T02:30:08.642Z,12.00
2022-12-23T02:30:22.793Z,12.00
2022-12-23T02:30:37.394Z,12.00
2022-12-23T02:30:53.594Z,12.00
2022-12-23T02:31:10.593Z,12.00
2022-12-23T02:31:34.608Z,12.00
2022-12-23T02:32:07.080Z,12.00
2022-12-23T02:32:33.823Z,12.00
2022-12-23T02:32:58.909Z,12.00
2022-12-23T02:33:16.013Z,12.00
2022-12-23T02:33:35.320Z,12.00
2022-12-23T02:35:00.763Z,12.00
2022-12-23T02:35:26.556Z,12.00
2022-12-23T02:36:07.699Z,12.00
2022-12-23T02:36:56.697Z,12.00
2022-12-23T02:38:15.401Z,11.90
2022-12-23T02:38:31.049Z,12.00
2022-12-23T02:39:07.000Z,11.90
2022-12-23T02:39:39.204Z,12.00
2022-12-23T02:39:54.934Z,12.00
2022-12-23T02:40:34.830Z,11.90
2022-12-23T02:40:57.183Z,12.00
2022-12-23T02:41:39.760Z,11.90
2022-12-23T02:41:54.970Z,12.00
2022-12-23T02:42:09.481Z,12.00
2022-12-23T02:42:24.221Z,11.90
2022-12-23T02:42:37.194Z,11.90
2022-12-23T02:43:01.297Z,12.00
2022-12-23T02:43:19.403Z,12.00
2022-12-23T02:43:49.008Z,11.90
2022-12-23T02:44:04.024Z,11.90
2022-12-23T02:55:29.493Z,12.00
2022-12-23T02:55:41.481Z,12.00
2022-12-23T02:55:53.393Z,11.90
2022-12-23T02:56:05.815Z,12.00
2022-12-23T02:56:18.433Z,12.00
2022-12-23T02:56:30.917Z,12.00
2022-12-23T02:56:44.118Z,12.00
2022-12-23T02:56:55.989Z,11.90
2022-12-23T02:57:07.754Z,11.90
2022-12-23T02:57:23.071Z,12.00
2022-12-23T02:57:36.750Z,12.00
2022-12-23T02:57:49.508Z,12.00
2022-12-23T02:58:03.232Z,11.90
2022-12-23T02:58:15.890Z,11.90
2022-12-23T02:58:31.095Z,11.90
2022-12-23T02:58:52.757Z,11.90
2022-12-23T02:59:08.132Z,12.00
2022-12-23T02:59:22.106Z,12.00
2022-12-23T02:59:36.806Z,12.00
2022-12-23T02:59:49.647Z,12.00
2022-12-23T03:00:01.700Z,12.00
2022-12-23T03:00:13.727Z,12.00
2022-12-23T03:00:25.422Z,12.00
2022-12-23T03:00:37.144Z,12.00
2022-12-23T03:00:49.133Z,12.00
2022-12-23T03:01:01.015Z,12.00
2022-12-23T03:01:13.454Z,12.00
2022-12-23T03:01:26.255Z,12.00
2022-12-23T03:01:38.387Z,12.00
2022-12-23T03:01:50.827Z,12.00
2022-12-23T03:02:02.744Z,12.00
2022-12-23T03:02:14.718Z,12.00
2022-12-23T03:02:26.683Z,12.00
2022-12-23T03:02:39.667Z,12.00
2022-12-23T03:02:52.019Z,12.00
2022-12-23T03:03:04.129Z,12.00
2022-12-23T03:03:17.532Z,12.00
2022-12-23T03:03:29.368Z,12.00
2022-12-23T03:03:41.821Z,12.00
2022-12-23T03:03:53.670Z,12.00
2022-12-23T03:04:06.862Z,12.00
2022-12-23T03:04:19.153Z,12.00
2022-12-23T03:04:30.913Z,12.00
2022-12-23T03:04:42.721Z,12.00
2022-12-23T03:04:54.421Z,12.00
2022-12-23T03:05:07.127Z,12.00
2022-12-23T03:05:28.548Z,12.00
2022-12-23T03:05:42.278Z,12.00
2022-12-23T03:05:54.030Z,12.00
2022-12-23T03:06:13.569Z,12.00
2022-12-23T03:06:27.603Z,12.00
2022-12-23T03:06:43.766Z,12.00
2022-12-23T03:06:55.702Z,12.00
2022-12-23T03:07:10.450Z,12.00
2022-12-23T03:07:35.639Z,12.00
2022-12-23T03:07:48.788Z,12.00
2022-12-23T03:08:03.080Z,12.00
2022-12-23T03:08:29.838Z,12.00
2022-12-23T03:08:42.829Z,12.00
2022-12-23T03:08:56.760Z,12.00
2022-12-23T03:09:08.831Z,12.00
2022-12-23T03:09:52.836Z,12.00
2022-12-23T03:10:22.701Z,12.00
2022-12-23T03:10:50.512Z,12.00
2022-12-23T03:11:09.206Z,12.00
2022-12-23T03:11:20.962Z,12.00
2022-12-23T03:11:59.433Z,12.00
2022-12-23T03:12:19.623Z,12.00
2022-12-23T03:12:44.190Z,12.00
2022-12-23T03:13:09.525Z,12.00
2022-12-23T03:13:21.226Z,12.00
2022-12-23T03:13:53.839Z,12.00
2022-12-23T03:14:34.265Z,12.00
2022-12-23T03:15:30.387Z,12.00
2022-12-23T03:15:57.406Z,12.00
2022-12-23T03:16:21.147Z,12.00
2022-12-23T03:16:52.374Z,12.00
2022-12-23T03:17:30.160Z,12.00
2022-12-23T03:17:45.187Z,12.00
2022-12-23T03:18:07.231Z,12.00
2022-12-23T03:18:40.311Z,12.00
2022-12-23T03:19:13.209Z,12.00
2022-12-23T03:19:54.475Z,12.00
2022-12-23T03:20:21.458Z,12.00
2022-12-23T03:20:54.599Z,12.00
2022-12-23T03:21:09.002Z,12.00
2022-12-23T03:22:13.370Z,12.00
2022-12-23T03:23:10.632Z,12.00
2022-12-23T03:23:29.229Z,12.00
2022-12-23T03:23:43.997Z,12.00
2022-12-23T03:24:29.394Z,12.00
2022-12-23T03:25:08.960Z,12.00
2022-12-23T03:25:23.556Z,12.00
2022-12-23T03:25:47.143Z,12.00
2022-12-23T03:26:03.813Z,12.00
2022-12-23T03:26:18.880Z,12.00
2022-12-23T03:26:38.777Z,12.00
2022-12-23T03:27:09.446Z,12.00
2022-12-23T03:27:31.474Z,12.00
2022-12-23T03:27:45.018Z,12.00
2022-12-23T03:28:16.741Z,12.00
2022-12-23T03:28:46.512Z,12.00
2022-12-23T03:29:11.646Z,12.00
2022-12-23T03:29:35.214Z,12.00
2022-12-23T03:30:08.175Z,12.00
2022-12-23T03:30:20.137Z,12.00
2022-12-23T03:30:31.983Z,12.00
2022-12-23T03:30:46.013Z,12.00
2022-12-23T03:30:57.764Z,12.00
2022-12-23T03:31:11.596Z,12.10
2022-12-23T03:31:29.685Z,12.10
2022-12-23T03:31:41.526Z,12.10
2022-12-23T03:31:53.599Z,12.10
2022-12-23T03:32:05.291Z,12.10
2022-12-23T03:32:17.146Z,12.10
2022-12-23T03:32:31.276Z,12.10
2022-12-23T03:33:15.527Z,12.10
2022-12-23T03:33:29.157Z,12.10
2022-12-23T03:33:42.647Z,12.10
2022-12-23T03:34:16.585Z,12.10
2022-12-23T03:34:30.691Z,12.10
2022-12-23T03:34:44.593Z,12.10
2022-12-23T03:34:56.775Z,12.10
2022-12-23T03:35:09.194Z,12.10
2022-12-23T03:35:24.275Z,12.10
2022-12-23T03:35:41.161Z,12.10
2022-12-23T03:35:55.385Z,12.10
2022-12-23T03:36:29.649Z,12.10
2022-12-23T03:36:43.123Z,12.10
2022-12-23T03:36:57.379Z,12.10
2022-12-23T03:37:10.049Z,12.10
2022-12-23T03:37:22.520Z,12.10
2022-12-23T03:37:34.718Z,12.10
2022-12-23T03:37:48.192Z,12.10
2022-12-23T03:38:00.032Z,12.10
2022-12-23T03:38:11.935Z,12.10
2022-12-23T03:38:23.765Z,12.10
2022-12-23T03:38:35.878Z,12.10
2022-12-23T03:38:48.154Z,12.10
2022-12-23T03:38:59.882Z,12.10
2022-12-23T03:39:15.002Z,12.10
2022-12-23T03:39:29.963Z,12.10
2022-12-23T03:39:49.841Z,12.10
2022-12-23T03:40:22.865Z,12.10
2022-12-23T03:40:45.498Z,12.10
2022-12-23T03:40:59.692Z,12.10
2022-12-23T03:41:16.498Z,12.10
2022-12-23T03:41:31.449Z,12.10
2022-12-23T03:41:46.031Z,12.10
2022-12-23T03:42:04.219Z,12.10
2022-12-23T03:42:27.110Z,12.10
2022-12-23T03:42:40.007Z,12.20
2022-12-23T03:42:54.902Z,12.20
2022-12-23T03:43:16.384Z,12.10
2022-12-23T03:43:33.578Z,12.20
2022-12-23T03:43:51.584Z,12.20
2022-12-23T03:44:06.718Z,12.20
2022-12-23T03:44:32.001Z,12.20
2022-12-23T03:45:10.731Z,12.20
2022-12-23T03:45:38.023Z,12.20
2022-12-23T03:45:54.489Z,12.20
2022-12-23T03:46:29.680Z,12.20
2022-12-23T03:46:44.333Z,12.20
2022-12-23T03:47:02.781Z,12.10
2022-12-23T03:47:23.083Z,12.10
2022-12-23T03:48:05.491Z,12.10
2022-12-23T03:48:27.824Z,12.10
2022-12-23T03:48:41.286Z,12.10
2022-12-23T03:48:54.346Z,12.10
2022-12-23T03:49:08.028Z,12.10
2022-12-23T03:49:26.233Z,12.10